createdAt,value
2023-05-21T00:00:39.911Z,95694.94
2023-05-21T00:01:45.908Z,95697.63
2023-05-21T00:02:48.132Z,95689.91
2023-05-21T00:03:53.063Z,95692.06
2023-05-21T00:04:55.217Z,95690.38
2023-05-21T00:06:01.810Z,95692.16
2023-05-21T00:07:04.432Z,95693.13
2023-05-21T00:08:09.425Z,95685.53
2023-05-21T00:09:13.233Z,95688.13
2023-05-21T00:10:17.965Z,95683.00
2023-05-21T00:11:20.292Z,95690.97
2023-05-21T00:12:25.013Z,95681.59
2023-05-21T00:13:29.811Z,95685.94
2023-05-21T00:14:34.562Z,95682.50
2023-05-21T00:15:36.845Z,95678.25
2023-05-21T00:16:41.847Z,95684.28
2023-05-21T00:17:44.295Z,95678.25
2023-05-21T00:18:49.926Z,95686.31
2023-05-21T00:19:52.249Z,95680.47
2023-05-21T00:20:58.008Z,95675.38
2023-05-21T00:22:02.497Z,95679.03
2023-05-21T00:23:07.928Z,95676.63
2023-05-21T00:24:10.114Z,95678.50
2023-05-21T00:25:15.178Z,95673.44
2023-05-21T00:26:17.280Z,95669.34
2023-05-21T00:27:22.006Z,95671.13
2023-05-21T00:28:24.085Z,95673.03
2023-05-21T00:29:31.579Z,95671.38
2023-05-21T00:30:33.742Z,95668.84
2023-05-21T00:31:38.520Z,95668.84
2023-05-21T00:32:40.686Z,95668.16
2023-05-21T00:33:45.440Z,95670.03
2023-05-21T00:34:48.433Z,95674.53
2023-05-21T00:35:53.148Z,95665.97
2023-05-21T00:36:56.054Z,95657.47
2023-05-21T00:38:01.761Z,95661.00
2023-05-21T00:39:04.863Z,95662.69
2023-05-21T00:40:11.810Z,95663.59
2023-05-21T00:41:14.196Z,95661.72
2023-05-21T00:42:19.377Z,95659.94
2023-05-21T00:43:26.307Z,95653.06
2023-05-21T00:44:34.556Z,95655.53
2023-05-21T00:45:37.554Z,95650.47
2023-05-21T00:46:44.319Z,95653.91
2023-05-21T00:47:48.659Z,95657.47
2023-05-21T00:48:54.003Z,95662.53
2023-05-21T00:49:56.303Z,95662.03
2023-05-21T00:51:01.031Z,95653.53
2023-05-21T00:52:03.267Z,95655.41
2023-05-21T00:53:09.761Z,95655.50
2023-05-21T00:54:12.291Z,95655.63
2023-05-21T00:55:17.370Z,95645.28
2023-05-21T00:56:20.462Z,95648.75
2023-05-21T00:57:28.289Z,95651.69
2023-05-21T00:58:31.259Z,95648.34
2023-05-21T00:59:38.579Z,95649.31
2023-05-21T01:00:40.877Z,95643.47
2023-05-21T01:01:46.537Z,95644.41
2023-05-21T01:02:50.088Z,95645.47
2023-05-21T01:03:57.924Z,95643.81
2023-05-21T01:05:00.612Z,95645.69
2023-05-21T01:06:05.395Z,95651.03
2023-05-21T01:07:09.750Z,95645.91
2023-05-21T01:08:15.188Z,95651.13
2023-05-21T01:09:18.115Z,95648.63
2023-05-21T01:10:22.906Z,95642.72
2023-05-21T01:11:34.008Z,95648.75
2023-05-21T01:12:45.284Z,95646.97
2023-05-21T01:13:48.704Z,95646.13
2023-05-21T01:14:57.821Z,95646.13
2023-05-21T01:16:01.509Z,95648.00
2023-05-21T01:17:11.965Z,95641.38
2023-05-21T01:18:14.657Z,95647.50
2023-05-21T01:19:22.475Z,95647.63
2023-05-21T01:20:25.103Z,95646.59
2023-05-21T01:21:32.346Z,95640.88
2023-05-21T01:22:36.299Z,95641.81
2023-05-21T01:23:43.731Z,95641.81
2023-05-21T01:24:48.417Z,95638.47
2023-05-21T01:25:53.145Z,95641.31
2023-05-21T01:26:55.511Z,95644.00
2023-05-21T01:28:00.224Z,95643.19
2023-05-21T01:29:02.672Z,95640.81
2023-05-21T01:30:08.641Z,95647.06
2023-05-21T01:31:23.139Z,95642.91
2023-05-21T01:32:35.749Z,95650.63
2023-05-21T01:33:45.721Z,95640.19
2023-05-21T01:34:59.346Z,95641.53
2023-05-21T01:36:06.271Z,95639.03
2023-05-21T01:37:19.885Z,95657.25
2023-05-21T01:38:27.625Z,95650.41
2023-05-21T01:39:38.724Z,95655.59
2023-05-21T01:40:45.914Z,95642.69
2023-05-21T01:41:52.586Z,95646.31
2023-05-21T01:42:54.898Z,95643.03
2023-05-21T01:44:00.232Z,95644.75
2023-05-21T01:45:06.438Z,95651.03
2023-05-21T01:46:13.722Z,95646.03
2023-05-21T01:47:18.209Z,95648.75
2023-05-21T01:48:23.144Z,95653.97
2023-05-21T01:49:25.714Z,95647.06
2023-05-21T01:50:32.077Z,95649.69
2023-05-21T01:51:35.012Z,95646.38
2023-05-21T01:52:40.150Z,95640.22
2023-05-21T01:53:44.913Z,95647.22
2023-05-21T01:54:51.443Z,95648.97
2023-05-21T01:55:56.348Z,95645.44
2023-05-21T01:56:58.465Z,95643.56
2023-05-21T01:58:03.529Z,95640.13
2023-05-21T01:59:06.091Z,95638.34
2023-05-21T02:00:12.518Z,95638.44
2023-05-21T02:01:14.630Z,95637.59
2023-05-21T02:02:19.318Z,95648.03
2023-05-21T02:03:22.126Z,95647.28
2023-05-21T02:04:26.836Z,95647.28
2023-05-21T02:05:29.311Z,95648.03
2023-05-21T02:06:36.120Z,95641.69
2023-05-21T02:07:38.894Z,95640.81
2023-05-21T02:08:45.772Z,95631.44
2023-05-21T02:09:50.602Z,95640.22
2023-05-21T02:10:55.265Z,95634.28
2023-05-21T02:11:58.449Z,95645.66
2023-05-21T02:13:03.573Z,95634.41
2023-05-21T02:14:05.715Z,95629.41
2023-05-21T02:15:10.967Z,95641.56
2023-05-21T02:16:15.058Z,95643.47
2023-05-21T02:17:20.051Z,95642.75
2023-05-21T02:18:22.552Z,95636.09
2023-05-21T02:19:27.466Z,95641.41
2023-05-21T02:20:30.443Z,95644.22
2023-05-21T02:21:35.271Z,95636.50
2023-05-21T02:22:37.856Z,95635.66
2023-05-21T02:23:42.789Z,95638.41
2023-05-21T02:24:45.642Z,95646.44
2023-05-21T02:25:53.135Z,95636.94
2023-05-21T02:26:55.241Z,95634.31
2023-05-21T02:27:59.972Z,95640.50
2023-05-21T02:29:02.077Z,95638.94
2023-05-21T02:30:08.973Z,95633.81
2023-05-21T02:31:11.801Z,95629.66
2023-05-21T02:32:17.130Z,95635.81
2023-05-21T02:33:20.445Z,95630.72
2023-05-21T02:34:26.166Z,95629.03
2023-05-21T02:35:28.463Z,95628.25
2023-05-21T02:36:33.494Z,95635.94
2023-05-21T02:37:36.669Z,95623.59
2023-05-21T02:38:43.895Z,95627.03
2023-05-21T02:39:46.147Z,95623.53
2023-05-21T02:40:53.860Z,95619.13
2023-05-21T02:41:56.079Z,95624.34
2023-05-21T02:43:00.783Z,95621.75
2023-05-21T02:44:02.882Z,95614.66
2023-05-21T02:45:08.464Z,95614.75
2023-05-21T02:46:10.793Z,95614.88
2023-05-21T02:47:15.546Z,95614.03
2023-05-21T02:48:17.660Z,95621.75
2023-05-21T02:49:22.368Z,95617.34
2023-05-21T02:50:24.527Z,95619.22
2023-05-21T02:51:29.210Z,95616.84
2023-05-21T02:52:31.488Z,95609.88
2023-05-21T02:53:36.189Z,95614.41
2023-05-21T02:54:38.258Z,95619.75
2023-05-21T02:55:42.992Z,95617.16
2023-05-21T02:56:47.661Z,95616.31
2023-05-21T02:57:52.412Z,95620.78
2023-05-21T02:58:54.759Z,95622.66
2023-05-21T02:59:59.451Z,95618.50
2023-05-21T03:01:01.836Z,95623.81
2023-05-21T03:02:06.585Z,95615.16
2023-05-21T03:03:08.867Z,95616.94
2023-05-21T03:04:13.599Z,95613.63
2023-05-21T03:05:15.741Z,95615.16
2023-05-21T03:06:20.471Z,95620.56
2023-05-21T03:07:22.677Z,95621.53
2023-05-21T03:08:27.699Z,95616.53
2023-05-21T03:09:29.751Z,95617.56
2023-05-21T03:10:34.482Z,95621.00
2023-05-21T03:11:38.946Z,95617.56
2023-05-21T03:12:46.196Z,95621.00
2023-05-21T03:13:48.391Z,95617.78
2023-05-21T03:14:54.126Z,95614.56
2023-05-21T03:15:56.657Z,95613.00
2023-05-21T03:17:01.400Z,95610.63
2023-05-21T03:18:06.396Z,95614.25
2023-05-21T03:19:08.711Z,95614.47
2023-05-21T03:20:17.315Z,95610.91
2023-05-21T03:21:22.833Z,95612.78
2023-05-21T03:22:27.512Z,95615.38
2023-05-21T03:23:29.602Z,95611.13
2023-05-21T03:24:34.472Z,95622.44
2023-05-21T03:25:37.238Z,95618.19
2023-05-21T03:26:42.051Z,95623.53
2023-05-21T03:27:46.698Z,95619.13
2023-05-21T03:28:51.357Z,95617.47
2023-05-21T03:29:55.274Z,95621.84
2023-05-21T03:31:00.139Z,95616.75
2023-05-21T03:32:02.756Z,95615.06
2023-05-21T03:33:07.860Z,95610.81
2023-05-21T03:34:10.019Z,95614.34
2023-05-21T03:35:14.740Z,95613.63
2023-05-21T03:36:19.767Z,95618.91
2023-05-21T03:37:21.921Z,95613.00
2023-05-21T03:38:26.561Z,95617.25
2023-05-21T03:39:28.731Z,95616.53
2023-05-21T03:40:33.402Z,95615.69
2023-05-21T03:41:35.558Z,95619.25
2023-05-21T03:42:40.244Z,95624.44
2023-05-21T03:43:44.945Z,95625.34
2023-05-21T03:44:49.842Z,95619.03
2023-05-21T03:45:52.223Z,95622.53
2023-05-21T03:46:56.942Z,95619.25
2023-05-21T03:47:59.192Z,95617.34
2023-05-21T03:49:03.979Z,95619.94
2023-05-21T03:50:07.867Z,95621.72
2023-05-21T03:51:13.455Z,95615.59
2023-05-21T03:52:15.689Z,95620.47
2023-05-21T03:53:20.604Z,95625.47
2023-05-21T03:54:22.682Z,95629.03
2023-05-21T03:55:27.358Z,95623.81
2023-05-21T03:56:29.532Z,95626.41
2023-05-21T03:57:34.230Z,95627.16
2023-05-21T03:58:36.983Z,95628.81
2023-05-21T03:59:44.244Z,95632.16
2023-05-21T04:00:46.330Z,95631.00
2023-05-21T04:01:52.367Z,95629.88
2023-05-21T04:02:54.745Z,95623.50
2023-05-21T04:03:59.593Z,95625.28
2023-05-21T04:05:01.808Z,95620.25
2023-05-21T04:06:07.089Z,95628.81
2023-05-21T04:07:14.678Z,95624.44
2023-05-21T04:08:19.480Z,95632.34
2023-05-21T04:09:21.717Z,95627.78
2023-05-21T04:10:27.162Z,95630.50
2023-05-21T04:11:29.231Z,95629.44
2023-05-21T04:12:33.947Z,95636.41
2023-05-21T04:13:36.492Z,95630.28
2023-05-21T04:14:41.236Z,95631.94
2023-05-21T04:15:46.981Z,95632.69
2023-05-21T04:16:51.980Z,95631.72
2023-05-21T04:17:54.889Z,95634.22
2023-05-21T04:18:59.829Z,95632.34
2023-05-21T04:20:02.120Z,95634.63
2023-05-21T04:21:07.738Z,95629.34
2023-05-21T04:22:10.934Z,95631.53
2023-05-21T04:23:15.617Z,95631.41
2023-05-21T04:24:17.827Z,95642.34
2023-05-21T04:25:23.477Z,95640.38
2023-05-21T04:26:25.572Z,95644.44
2023-05-21T04:27:30.279Z,95649.22
2023-05-21T04:28:33.419Z,95647.22
2023-05-21T04:29:42.920Z,95648.78
2023-05-21T04:30:48.032Z,95646.09
2023-05-21T04:31:52.920Z,95642.53
2023-05-21T04:32:55.596Z,95641.38
2023-05-21T04:34:00.312Z,95635.00
2023-05-21T04:35:02.459Z,95644.28
2023-05-21T04:36:10.041Z,95646.75
2023-05-21T04:37:12.451Z,95644.75
2023-05-21T04:38:19.962Z,95637.69
2023-05-21T04:39:22.145Z,95635.06
2023-05-21T04:40:27.188Z,95635.81
2023-05-21T04:41:29.370Z,95642.44
2023-05-21T04:42:34.235Z,95639.63
2023-05-21T04:43:37.034Z,95639.41
2023-05-21T04:44:44.682Z,95640.75
2023-05-21T04:45:49.808Z,95636.97
2023-05-21T04:46:55.020Z,95636.03
2023-05-21T04:48:00.817Z,95634.06
2023-05-21T04:49:05.832Z,95638.91
2023-05-21T04:50:09.166Z,95639.66
2023-05-21T04:51:15.237Z,95641.22
2023-05-21T04:52:17.696Z,95643.59
2023-05-21T04:53:22.410Z,95643.47
2023-05-21T04:54:24.750Z,95648.56
2023-05-21T04:55:29.896Z,95643.13
2023-05-21T04:56:32.107Z,95649.09
2023-05-21T04:57:36.874Z,95645.28
2023-05-21T04:58:40.793Z,95648.41
2023-05-21T04:59:45.610Z,95648.19
2023-05-21T05:00:52.120Z,95646.19
2023-05-21T05:01:56.912Z,95648.69
2023-05-21T05:02:59.152Z,95650.81
2023-05-21T05:04:04.529Z,95650.50
2023-05-21T05:05:07.182Z,95653.69
2023-05-21T05:06:11.858Z,95659.66
2023-05-21T05:07:13.998Z,95653.38
2023-05-21T05:08:19.024Z,95648.75
2023-05-21T05:09:21.759Z,95653.00
2023-05-21T05:10:26.486Z,95656.28
2023-05-21T05:11:28.617Z,95651.06
2023-05-21T05:12:33.269Z,95653.22
2023-05-21T05:13:35.536Z,95645.88
2023-05-21T05:14:40.201Z,95652.41
2023-05-21T05:15:45.295Z,95648.03
2023-05-21T05:16:50.969Z,95651.22
2023-05-21T05:17:56.803Z,95646.72
2023-05-21T05:18:59.032Z,95638.56
2023-05-21T05:20:04.018Z,95646.03
2023-05-21T05:21:06.340Z,95642.84
2023-05-21T05:22:13.349Z,95641.44
2023-05-21T05:23:15.782Z,95639.28
2023-05-21T05:24:20.462Z,95639.91
2023-05-21T05:25:22.539Z,95642.97
2023-05-21T05:26:27.266Z,95637.38
2023-05-21T05:27:29.350Z,95639.66
2023-05-21T05:28:34.038Z,95640.97
2023-05-21T05:29:36.062Z,95639.66
2023-05-21T05:30:40.769Z,95634.06
2023-05-21T05:31:42.960Z,95638.09
2023-05-21T05:32:50.272Z,95634.19
2023-05-21T05:33:52.392Z,95634.66
2023-05-21T05:34:57.159Z,95634.16
2023-05-21T05:35:59.248Z,95633.66
2023-05-21T05:37:04.486Z,95632.34
2023-05-21T05:38:09.203Z,95636.41
2023-05-21T05:39:13.994Z,95632.72
2023-05-21T05:40:16.351Z,95630.09
2023-05-21T05:41:21.213Z,95626.31
2023-05-21T05:42:23.354Z,95625.81
2023-05-21T05:43:28.377Z,95626.38
2023-05-21T05:44:30.505Z,95628.53
2023-05-21T05:45:36.455Z,95630.25
2023-05-21T05:46:39.015Z,95632.66
2023-05-21T05:47:43.993Z,95634.03
2023-05-21T05:48:48.762Z,95626.66
2023-05-21T05:49:53.515Z,95631.38
2023-05-21T05:50:56.249Z,95630.88
2023-05-21T05:52:01.351Z,95625.13
2023-05-21T05:53:03.526Z,95632.50
2023-05-21T05:54:08.194Z,95631.16
2023-05-21T05:55:12.153Z,95625.28
2023-05-21T05:56:17.338Z,95628.91
2023-05-21T05:57:19.514Z,95622.75
2023-05-21T05:58:24.209Z,95620.56
2023-05-21T05:59:26.344Z,95629.69
2023-05-21T06:00:31.080Z,95618.00
2023-05-21T06:01:33.210Z,95618.00
2023-05-21T06:02:37.978Z,95619.41
2023-05-21T06:03:40.199Z,95619.25
2023-05-21T06:04:47.706Z,95623.19
2023-05-21T06:05:50.282Z,95612.72
2023-05-21T06:06:55.125Z,95610.41
2023-05-21T06:07:57.208Z,95615.13
2023-05-21T06:09:01.874Z,95612.09
2023-05-21T06:10:05.679Z,95614.34
2023-05-21T06:11:11.185Z,95606.09
2023-05-21T06:12:16.136Z,95611.34
2023-05-21T06:13:20.823Z,95605.56
2023-05-21T06:14:22.962Z,95613.06
2023-05-21T06:15:27.637Z,95609.72
2023-05-21T06:16:31.692Z,95604.53
2023-05-21T06:17:36.639Z,95595.41
2023-05-21T06:18:39.110Z,95592.69
2023-05-21T06:19:45.420Z,95608.56
2023-05-21T06:20:50.136Z,95606.91
2023-05-21T06:21:54.857Z,95601.38
2023-05-21T06:22:56.957Z,95605.13
2023-05-21T06:24:01.657Z,95604.16
2023-05-21T06:25:04.103Z,95604.75
2023-05-21T06:26:09.255Z,95599.34
2023-05-21T06:27:11.381Z,95597.16
2023-05-21T06:28:16.066Z,95603.50
2023-05-21T06:29:18.422Z,95603.38
2023-05-21T06:30:23.263Z,95591.63
2023-05-21T06:31:25.358Z,95594.13
2023-05-21T06:32:30.116Z,95608.78
2023-05-21T06:33:32.311Z,95594.44
2023-05-21T06:34:37.141Z,95589.75
2023-05-21T06:35:40.448Z,95594.16
2023-05-21T06:36:47.910Z,95603.31
2023-05-21T06:37:50.119Z,95603.41
2023-05-21T06:38:54.815Z,95599.53
2023-05-21T06:39:56.899Z,95602.31
2023-05-21T06:41:01.772Z,95599.41
2023-05-21T06:42:04.077Z,95591.66
2023-05-21T06:43:08.909Z,95591.53
2023-05-21T06:44:11.282Z,95592.25
2023-05-21T06:45:15.973Z,95593.50
2023-05-21T06:46:18.192Z,95596.66
2023-05-21T06:47:23.042Z,95595.69
2023-05-21T06:48:25.207Z,95589.91
2023-05-21T06:49:29.861Z,95584.22
2023-05-21T06:50:32.249Z,95594.44
2023-05-21T06:51:37.040Z,95597.63
2023-05-21T06:52:41.744Z,95590.00
2023-05-21T06:53:46.456Z,95594.72
2023-05-21T06:54:48.572Z,95599.13
2023-05-21T06:55:54.381Z,95594.97
2023-05-21T06:56:56.472Z,95588.19
2023-05-21T06:58:01.573Z,95588.88
2023-05-21T06:59:03.765Z,95591.66
2023-05-21T07:00:09.738Z,95594.56
2023-05-21T07:01:12.087Z,95588.19
2023-05-21T07:02:17.148Z,95598.84
2023-05-21T07:03:19.425Z,95594.69
2023-05-21T07:04:24.250Z,95587.88
2023-05-21T07:05:26.392Z,95584.69
2023-05-21T07:06:31.093Z,95583.28
2023-05-21T07:07:35.009Z,95588.81
2023-05-21T07:08:42.282Z,95589.88
2023-05-21T07:09:44.381Z,95592.53
2023-05-21T07:10:49.151Z,95581.00
2023-05-21T07:11:53.181Z,95583.88
2023-05-21T07:12:57.853Z,95588.44
2023-05-21T07:14:01.026Z,95582.47
2023-05-21T07:15:05.841Z,95575.69
2023-05-21T07:16:08.342Z,95564.16
2023-05-21T07:17:13.136Z,95569.13
2023-05-21T07:18:18.002Z,95580.03
2023-05-21T07:19:20.142Z,95580.31
2023-05-21T07:20:24.848Z,95570.63
2023-05-21T07:21:26.958Z,95573.56
2023-05-21T07:22:31.711Z,95568.56
2023-05-21T07:23:33.857Z,95568.31
2023-05-21T07:24:41.216Z,95567.72
2023-05-21T07:25:43.377Z,95561.28
2023-05-21T07:26:48.051Z,95574.91
2023-05-21T07:27:50.285Z,95571.63
2023-05-21T07:28:55.102Z,95570.72
2023-05-21T07:29:57.271Z,95552.81
2023-05-21T07:31:02.037Z,95551.59
2023-05-21T07:32:04.598Z,95534.88
2023-05-21T07:33:09.442Z,95529.84
2023-05-21T07:34:14.196Z,95545.22
2023-05-21T07:35:16.629Z,95546.78
2023-05-21T07:36:21.333Z,95555.06
2023-05-21T07:37:23.499Z,95560.56
2023-05-21T07:38:28.307Z,95547.50
2023-05-21T07:39:30.443Z,95543.63
2023-05-21T07:40:37.904Z,95548.50
2023-05-21T07:41:40.079Z,95560.09
2023-05-21T07:42:44.726Z,95544.50
2023-05-21T07:43:49.449Z,95552.25
2023-05-21T07:44:51.730Z,95547.78
2023-05-21T07:45:56.413Z,95547.66
2023-05-21T07:46:58.752Z,95535.63
2023-05-21T07:48:03.526Z,95538.00
2023-05-21T07:49:05.640Z,95531.44
2023-05-21T07:50:11.000Z,95549.09
2023-05-21T07:51:15.874Z,95528.34
2023-05-21T07:52:20.782Z,95517.25
2023-05-21T07:53:22.994Z,95532.47
2023-05-21T07:54:27.672Z,95522.91
2023-05-21T07:55:29.759Z,95537.44
2023-05-21T07:56:37.279Z,95526.03
2023-05-21T07:57:40.610Z,95509.03
2023-05-21T07:58:46.130Z,95492.31
2023-05-21T07:59:48.281Z,95501.75
2023-05-21T08:00:53.380Z,95505.53
2023-05-21T08:01:55.757Z,95503.38
2023-05-21T08:03:00.568Z,95513.91
2023-05-21T08:04:06.232Z,95498.41
2023-05-21T08:05:12.361Z,95473.06
2023-05-21T08:06:17.093Z,95474.03
2023-05-21T08:07:20.056Z,95468.56
2023-05-21T08:08:24.896Z,95479.78
2023-05-21T08:09:27.065Z,95487.19
2023-05-21T08:10:31.987Z,95503.91
2023-05-21T08:11:36.744Z,95486.69
2023-05-21T08:12:41.486Z,95485.22
2023-05-21T08:13:43.621Z,95480.53
2023-05-21T08:14:48.552Z,95488.59
2023-05-21T08:15:53.148Z,95498.31
2023-05-21T08:16:58.704Z,95499.50
2023-05-21T08:18:00.842Z,95471.03
2023-05-21T08:19:05.789Z,95473.53
2023-05-21T08:20:09.161Z,95483.13
2023-05-21T08:21:13.977Z,95480.63
2023-05-21T08:22:16.125Z,95471.56
2023-05-21T08:23:20.969Z,95475.84
2023-05-21T08:24:23.766Z,95495.38
2023-05-21T08:25:28.452Z,95501.97
2023-05-21T08:26:31.282Z,95492.91
2023-05-21T08:27:38.566Z,95510.56
2023-05-21T08:28:40.701Z,95505.06
2023-05-21T08:29:46.157Z,95514.94
2023-05-21T08:30:48.298Z,95519.94
2023-05-21T08:31:53.095Z,95511.69
2023-05-21T08:32:55.608Z,95515.59
2023-05-21T08:34:00.387Z,95493.13
2023-05-21T08:35:02.546Z,95521.72
2023-05-21T08:36:08.395Z,95508.16
2023-05-21T08:37:10.612Z,95500.41
2023-05-21T08:38:17.059Z,95496.69
2023-05-21T08:39:19.168Z,95492.19
2023-05-21T08:40:24.060Z,95507.72
2023-05-21T08:41:27.223Z,95520.16
2023-05-21T08:42:46.430Z,95508.91
2023-05-21T08:43:58.689Z,95517.34
2023-05-21T08:45:01.270Z,95498.50
2023-05-21T08:46:07.482Z,95521.84
2023-05-21T08:47:11.351Z,95533.63
2023-05-21T08:48:19.720Z,95523.72
2023-05-21T08:49:27.458Z,95533.56
2023-05-21T08:50:34.307Z,95502.09
2023-05-21T08:51:36.561Z,95527.47
2023-05-21T08:52:41.433Z,95528.41
2023-05-21T08:53:47.240Z,95525.59
2023-05-21T08:54:51.418Z,95517.34
2023-05-21T08:55:57.677Z,95529.22
2023-05-21T08:57:02.250Z,95512.06
2023-05-21T08:58:07.813Z,95519.56
2023-05-21T08:59:13.226Z,95533.09
2023-05-21T09:00:20.946Z,95524.47
2023-05-21T09:01:25.630Z,95509.88
2023-05-21T09:02:32.748Z,95489.38
2023-05-21T09:03:39.556Z,95515.75
2023-05-21T09:04:49.444Z,95510.75
2023-05-21T09:05:55.355Z,95527.41
2023-05-21T09:06:58.258Z,95531.03
2023-05-21T09:08:09.526Z,95521.69
2023-05-21T09:09:18.108Z,95530.59
2023-05-21T09:10:29.033Z,95516.72
2023-05-21T09:11:31.601Z,95524.63
2023-05-21T09:12:36.429Z,95517.59
2023-05-21T09:13:39.200Z,95495.09
2023-05-21T09:14:47.003Z,95508.16
2023-05-21T09:15:49.428Z,95489.97
2023-05-21T09:16:54.260Z,95519.22
2023-05-21T09:17:56.877Z,95504.84
2023-05-21T09:19:04.636Z,95513.63
2023-05-21T09:20:12.584Z,95516.34
2023-05-21T09:21:27.573Z,95502.16
2023-05-21T09:22:29.761Z,95496.69
2023-05-21T09:23:35.871Z,95522.94
2023-05-21T09:24:38.031Z,95467.56
2023-05-21T09:25:42.768Z,95491.28
2023-05-21T09:26:44.949Z,95490.88
2023-05-21T09:27:49.649Z,95498.00
2023-05-21T09:28:52.473Z,95499.19
2023-05-21T09:30:00.357Z,95477.94
2023-05-21T09:31:04.032Z,95485.91
2023-05-21T09:32:13.181Z,95462.38
2023-05-21T09:33:25.289Z,95464.91
2023-05-21T09:34:30.912Z,95455.53
2023-05-21T09:35:38.269Z,95457.56
2023-05-21T09:36:40.393Z,95457.25
2023-05-21T09:37:46.330Z,95451.63
2023-05-21T09:38:48.783Z,95443.94
2023-05-21T09:39:53.538Z,95435.75
2023-05-21T09:40:59.256Z,95445.88
2023-05-21T09:42:01.468Z,95432.41
2023-05-21T09:43:06.239Z,95430.59
2023-05-21T09:44:08.567Z,95402.97
2023-05-21T09:45:20.294Z,95405.88
2023-05-21T09:46:26.572Z,95381.28
2023-05-21T09:47:31.274Z,95397.69
2023-05-21T09:48:34.898Z,95387.81
2023-05-21T09:49:40.941Z,95385.34
2023-05-21T09:50:43.063Z,95432.00
2023-05-21T09:51:48.004Z,95431.25
2023-05-21T09:52:53.162Z,95399.66
2023-05-21T09:54:00.108Z,95428.34
2023-05-21T09:55:03.527Z,95416.03
2023-05-21T09:56:09.326Z,95413.59
2023-05-21T09:57:14.111Z,95430.78
2023-05-21T09:58:18.933Z,95444.31
2023-05-21T09:59:21.511Z,95423.44
2023-05-21T10:00:31.586Z,95417.13
2023-05-21T10:01:37.689Z,95421.94
2023-05-21T10:02:44.506Z,95431.63
2023-05-21T10:03:53.226Z,95427.47
2023-05-21T10:04:57.352Z,95422.16
2023-05-21T10:06:03.598Z,95428.59
2023-05-21T10:07:05.964Z,95444.56
2023-05-21T10:08:14.525Z,95434.44
2023-05-21T10:09:19.581Z,95430.78
2023-05-21T10:10:24.894Z,95441.44
2023-05-21T10:11:30.938Z,95450.88
2023-05-21T10:12:36.679Z,95447.16
2023-05-21T10:13:47.465Z,95447.81
2023-05-21T10:14:54.674Z,95435.06
2023-05-21T10:16:05.610Z,95456.53
2023-05-21T10:17:08.152Z,95470.03
2023-05-21T10:18:14.269Z,95477.38
2023-05-21T10:19:17.180Z,95474.31
2023-05-21T10:20:22.889Z,95465.53
2023-05-21T10:21:26.381Z,95454.69
2023-05-21T10:22:32.098Z,95463.34
2023-05-21T10:23:36.588Z,95440.44
2023-05-21T10:24:43.046Z,95438.53
2023-05-21T10:25:46.318Z,95439.81
2023-05-21T10:26:51.793Z,95449.66
2023-05-21T10:27:56.137Z,95453.59
2023-05-21T10:29:00.996Z,95444.00
2023-05-21T10:30:06.084Z,95449.13
2023-05-21T10:31:14.254Z,95445.22
2023-05-21T10:32:17.155Z,95442.13
2023-05-21T10:33:25.949Z,95435.19
2023-05-21T10:34:29.289Z,95424.94
2023-05-21T10:35:35.400Z,95436.63
2023-05-21T10:36:38.764Z,95441.16
2023-05-21T10:37:46.540Z,95455.91
2023-05-21T10:38:48.831Z,95471.13
2023-05-21T10:39:53.732Z,95415.66
2023-05-21T10:40:56.429Z,95444.25
2023-05-21T10:42:11.351Z,95445.44
2023-05-21T10:43:37.151Z,95435.63
2023-05-21T10:44:56.584Z,95435.75
2023-05-21T10:46:28.429Z,95381.34
2023-05-21T10:48:05.495Z,95404.38
2023-05-21T10:49:38.165Z,95368.97
2023-05-21T10:51:13.229Z,95361.81
2023-05-21T10:52:33.766Z,95379.03
2023-05-21T10:53:48.450Z,95384.00
2023-05-21T10:55:14.142Z,95409.94
2023-05-21T10:56:23.446Z,95370.31
2023-05-21T10:57:47.511Z,95334.88
2023-05-21T10:59:08.300Z,95382.13
2023-05-21T11:00:15.348Z,95350.09
2023-05-21T11:01:23.381Z,95371.91
2023-05-21T11:02:27.691Z,95357.06
2023-05-21T11:03:36.669Z,95329.00
2023-05-21T11:04:43.520Z,95364.91
2023-05-21T11:05:55.400Z,95359.34
2023-05-21T11:06:59.287Z,95367.00
2023-05-21T11:08:04.561Z,95344.97
2023-05-21T11:09:15.556Z,95358.00
2023-05-21T11:10:37.985Z,95370.94
2023-05-21T11:11:48.736Z,95387.03
2023-05-21T11:13:07.623Z,95353.28
2023-05-21T11:14:39.684Z,95363.38
2023-05-21T11:16:08.096Z,95351.97
2023-05-21T11:17:19.299Z,95354.44
2023-05-21T11:18:21.394Z,95336.97
2023-05-21T11:19:37.547Z,95345.81
2023-05-21T11:20:42.607Z,95359.75
2023-05-21T11:21:53.734Z,95370.09
2023-05-21T11:22:58.482Z,95383.75
2023-05-21T11:24:05.411Z,95387.84
2023-05-21T11:25:12.707Z,95359.44
2023-05-21T11:26:16.522Z,95355.09
2023-05-21T11:27:36.204Z,95366.44
2023-05-21T11:28:38.315Z,95348.34
2023-05-21T11:29:44.970Z,95360.41
2023-05-21T11:31:23.332Z,95370.06
2023-05-21T11:32:31.802Z,95378.75
2023-05-21T11:33:34.162Z,95396.25
2023-05-21T11:34:46.550Z,95369.81
2023-05-21T11:35:59.480Z,95389.50
2023-05-21T11:37:30.539Z,95367.13
2023-05-21T11:38:35.252Z,95365.75
2023-05-21T11:39:40.486Z,95373.97
2023-05-21T11:40:55.473Z,95357.72
2023-05-21T11:42:00.940Z,95375.16
2023-05-21T11:43:07.056Z,95388.69
2023-05-21T11:44:09.291Z,95342.66
2023-05-21T11:45:14.521Z,95369.16
2023-05-21T11:46:17.177Z,95356.06
2023-05-21T11:47:22.595Z,95364.53
2023-05-21T11:48:32.384Z,95371.03
2023-05-21T11:49:35.861Z,95379.88
2023-05-21T11:50:42.484Z,95410.63
2023-05-21T11:51:44.750Z,95409.91
2023-05-21T11:52:49.560Z,95402.66
2023-05-21T11:53:51.764Z,95392.84
2023-05-21T11:54:58.061Z,95363.53
2023-05-21T11:56:02.424Z,95387.00
2023-05-21T11:57:10.097Z,95395.25
2023-05-21T11:58:19.418Z,95393.03
2023-05-21T11:59:21.721Z,95404.75
2023-05-21T12:00:26.833Z,95376.09
2023-05-21T12:01:31.323Z,95385.94
2023-05-21T12:02:36.083Z,95413.66
2023-05-21T12:03:43.558Z,95392.66
2023-05-21T12:04:46.994Z,95400.25
2023-05-21T12:05:52.653Z,95403.66
2023-05-21T12:06:55.612Z,95394.91
2023-05-21T12:08:00.258Z,95408.72
2023-05-21T12:09:02.435Z,95408.56
2023-05-21T12:10:08.125Z,95394.47
2023-05-21T12:11:10.401Z,95396.31
2023-05-21T12:12:16.964Z,95394.34
2023-05-21T12:13:22.735Z,95355.53
2023-05-21T12:14:24.955Z,95374.13
2023-05-21T12:15:30.035Z,95369.34
2023-05-21T12:16:32.989Z,95391.25
2023-05-21T12:17:37.849Z,95369.75
2023-05-21T12:18:42.823Z,95365.16
2023-05-21T12:19:49.088Z,95357.94
2023-05-21T12:20:54.883Z,95364.69
2023-05-21T12:21:57.588Z,95388.72
2023-05-21T12:23:02.431Z,95381.59
2023-05-21T12:24:04.789Z,95397.72
2023-05-21T12:25:10.917Z,95383.03
2023-05-21T12:26:13.901Z,95378.59
2023-05-21T12:27:18.845Z,95363.31
2023-05-21T12:28:21.643Z,95371.41
2023-05-21T12:29:26.614Z,95392.69
2023-05-21T12:30:31.783Z,95366.34
2023-05-21T12:31:34.045Z,95363.38
2023-05-21T12:32:38.962Z,95320.88
2023-05-21T12:33:44.971Z,95366.84
2023-05-21T12:34:50.889Z,95381.50
2023-05-21T12:35:53.057Z,95370.84
2023-05-21T12:36:57.822Z,95355.94
2023-05-21T12:38:04.835Z,95355.84
2023-05-21T12:39:11.165Z,95364.31
2023-05-21T12:40:16.654Z,95340.91
2023-05-21T12:41:19.457Z,95369.88
2023-05-21T12:42:30.214Z,95366.53
2023-05-21T12:43:32.563Z,95370.81
2023-05-21T12:44:37.365Z,95374.03
2023-05-21T12:45:39.864Z,95360.69
2023-05-21T12:46:44.647Z,95386.16